sensor_id;sensor_type;location;lat;lon;timestamp;P1;durP1;ratioP1;P2;durP2;ratioP2
23470;SDS011;11908;50.806;4.424;2023-02-20T00:00:21;18.13;;;9.75;;
23470;SDS011;11908;50.806;4.424;2023-02-20T00:02:52;18.70;;;9.30;;
23470;SDS011;11908;50.806;4.424;2023-02-20T00:05:18;21.05;;;8.65;;
23470;SDS011;11908;50.806;4.424;2023-02-20T00:07:44;25.27;;;8.80;;
23470;SDS011;11908;50.806;4.424;2023-02-20T00:10:10;20.50;;;9.10;;
23470;SDS011;11908;50.806;4.424;2023-02-20T00:12:36;22.25;;;8.43;;
23470;SDS011;11908;50.806;4.424;2023-02-20T00:15:02;26.65;;;8.95;;
23470;SDS011;11908;50.806;4.424;2023-02-20T00:17:28;20.42;;;8.27;;
23470;SDS011;11908;50.806;4.424;2023-02-20T00:19:54;22.25;;;8.40;;
23470;SDS011;11908;50.806;4.424;2023-02-20T00:22:20;20.42;;;7.72;;
23470;SDS011;11908;50.806;4.424;2023-02-20T00:24:47;21.05;;;7.85;;
23470;SDS011;11908;50.806;4.424;2023-02-20T00:27:13;17.15;;;7.50;;
23470;SDS011;11908;50.806;4.424;2023-02-20T00:29:38;26.35;;;8.63;;
23470;SDS011;11908;50.806;4.424;2023-02-20T00:32:04;26.40;;;7.88;;
23470;SDS011;11908;50.806;4.424;2023-02-20T00:34:30;20.13;;;8.00;;
23470;SDS011;11908;50.806;4.424;2023-02-20T00:36:56;16.90;;;7.68;;
23470;SDS011;11908;50.806;4.424;2023-02-20T00:39:21;21.05;;;7.35;;
23470;SDS011;11908;50.806;4.424;2023-02-20T00:41:47;27.75;;;7.35;;
23470;SDS011;11908;50.806;4.424;2023-02-20T00:44:13;16.90;;;6.88;;
23470;SDS011;11908;50.806;4.424;2023-02-20T00:46:39;18.30;;;7.78;;
23470;SDS011;11908;50.806;4.424;2023-02-20T00:49:05;21.70;;;7.78;;
23470;SDS011;11908;50.806;4.424;2023-02-20T00:51:30;15.73;;;7.35;;
23470;SDS011;11908;50.806;4.424;2023-02-20T00:53:57;16.35;;;8.73;;
23470;SDS011;11908;50.806;4.424;2023-02-20T00:56:23;25.02;;;9.43;;
23470;SDS011;11908;50.806;4.424;2023-02-20T00:58:49;28.45;;;10.02;;
23470;SDS011;11908;50.806;4.424;2023-02-20T01:01:15;22.05;;;10.48;;
23470;SDS011;11908;50.806;4.424;2023-02-20T01:03:41;22.95;;;11.20;;
23470;SDS011;11908;50.806;4.424;2023-02-20T01:06:07;26.92;;;11.82;;
23470;SDS011;11908;50.806;4.424;2023-02-20T01:08:33;28.77;;;12.07;;
23470;SDS011;11908;50.806;4.424;2023-02-20T01:10:59;27.70;;;11.93;;
23470;SDS011;11908;50.806;4.424;2023-02-20T01:13:25;24.98;;;12.05;;
23470;SDS011;11908;50.806;4.424;2023-02-20T01:15:50;23.83;;;13.00;;
23470;SDS011;11908;50.806;4.424;2023-02-20T01:18:16;29.73;;;13.27;;
23470;SDS011;11908;50.806;4.424;2023-02-20T01:20:42;21.85;;;12.73;;
23470;SDS011;11908;50.806;4.424;2023-02-20T01:23:07;28.88;;;12.38;;
23470;SDS011;11908;50.806;4.424;2023-02-20T01:25:33;24.73;;;13.43;;
23470;SDS011;11908;50.806;4.424;2023-02-20T01:27:59;31.50;;;13.40;;
23470;SDS011;11908;50.806;4.424;2023-02-20T01:30:25;24.35;;;12.48;;
23470;SDS011;11908;50.806;4.424;2023-02-20T01:32:50;26.05;;;14.00;;
23470;SDS011;11908;50.806;4.424;2023-02-20T01:35:16;27.48;;;14.13;;
23470;SDS011;11908;50.806;4.424;2023-02-20T01:37:42;27.58;;;13.82;;
23470;SDS011;11908;50.806;4.424;2023-02-20T01:40:09;26.35;;;13.77;;
23470;SDS011;11908;50.806;4.424;2023-02-20T01:42:47;28.05;;;14.45;;
23470;SDS011;11908;50.806;4.424;2023-02-20T01:45:17;28.50;;;14.57;;
23470;SDS011;11908;50.806;4.424;2023-02-20T01:47:51;28.13;;;14.85;;
23470;SDS011;11908;50.806;4.424;2023-02-20T01:50:19;27.05;;;14.73;;
23470;SDS011;11908;50.806;4.424;2023-02-20T01:52:50;22.17;;;13.82;;
23470;SDS011;11908;50.806;4.424;2023-02-20T01:55:32;28.60;;;15.35;;
23470;SDS011;11908;50.806;4.424;2023-02-20T01:58:28;30.92;;;14.75;;
23470;SDS011;11908;50.806;4.424;2023-02-20T02:04:17;31.17;;;14.18;;
23470;SDS011;11908;50.806;4.424;2023-02-20T02:06:45;30.55;;;14.00;;
23470;SDS011;11908;50.806;4.424;2023-02-20T02:09:17;29.33;;;13.43;;
23470;SDS011;11908;50.806;4.424;2023-02-20T02:11:56;28.98;;;13.88;;
23470;SDS011;11908;50.806;4.424;2023-02-20T02:14:22;30.65;;;11.52;;
23470;SDS011;11908;50.806;4.424;2023-02-20T02:39:01;23.70;;;13.90;;
23470;SDS011;11908;50.806;4.424;2023-02-20T02:41:34;30.40;;;11.90;;
23470;SDS011;11908;50.806;4.424;2023-02-20T02:44:50;29.52;;;12.60;;
23470;SDS011;11908;50.806;4.424;2023-02-20T02:47:06;29.05;;;12.75;;
23470;SDS011;11908;50.806;4.424;2023-02-20T02:49:45;34.20;;;12.80;;
23470;SDS011;11908;50.806;4.424;2023-02-20T02:52:22;24.48;;;12.05;;
23470;SDS011;11908;50.806;4.424;2023-02-20T02:55:07;29.08;;;12.60;;
23470;SDS011;11908;50.806;4.424;2023-02-20T02:57:33;22.90;;;13.25;;
23470;SDS011;11908;50.806;4.424;2023-02-20T03:00:00;27.77;;;13.45;;
23470;SDS011;11908;50.806;4.424;2023-02-20T03:02:34;24.70;;;12.43;;
23470;SDS011;11908;50.806;4.424;2023-02-20T03:05:14;35.33;;;13.35;;
23470;SDS011;11908;50.806;4.424;2023-02-20T03:07:44;28.40;;;12.40;;
23470;SDS011;11908;50.806;4.424;2023-02-20T03:10:16;25.88;;;11.93;;
23470;SDS011;11908;50.806;4.424;2023-02-20T03:12:44;30.50;;;11.93;;
23470;SDS011;11908;50.806;4.424;2023-02-20T03:21:02;23.17;;;10.35;;
23470;SDS011;11908;50.806;4.424;2023-02-20T03:23:39;22.90;;;10.27;;
23470;SDS011;11908;50.806;4.424;2023-02-20T03:26:09;19.50;;;9.52;;
23470;SDS011;11908;50.806;4.424;2023-02-20T03:28:43;22.38;;;9.30;;
23470;SDS011;11908;50.806;4.424;2023-02-20T03:31:14;21.00;;;9.52;;
23470;SDS011;11908;50.806;4.424;2023-02-20T03:36:56;18.85;;;7.80;;
23470;SDS011;11908;50.806;4.424;2023-02-20T03:39:43;19.98;;;8.40;;
23470;SDS011;11908;50.806;4.424;2023-02-20T03:42:30;22.95;;;8.70;;
23470;SDS011;11908;50.806;4.424;2023-02-20T03:45:18;26.48;;;8.80;;
23470;SDS011;11908;50.806;4.424;2023-02-20T03:47:47;22.33;;;8.43;;
23470;SDS011;11908;50.806;4.424;2023-02-20T03:50:19;22.13;;;8.18;;
23470;SDS011;11908;50.806;4.424;2023-02-20T03:52:47;17.65;;;8.30;;
23470;SDS011;11908;50.806;4.424;2023-02-20T03:55:14;15.68;;;7.97;;
23470;SDS011;11908;50.806;4.424;2023-02-20T03:57:41;20.45;;;8.05;;
23470;SDS011;11908;50.806;4.424;2023-02-20T04:00:19;18.80;;;8.13;;
23470;SDS011;11908;50.806;4.424;2023-02-20T04:02:47;18.58;;;7.70;;
23470;SDS011;11908;50.806;4.424;2023-02-20T04:05:24;31.50;;;10.35;;
23470;SDS011;11908;50.806;4.424;2023-02-20T04:07:59;21.30;;;8.98;;
23470;SDS011;11908;50.806;4.424;2023-02-20T04:10:37;24.50;;;8.27;;
23470;SDS011;11908;50.806;4.424;2023-02-20T04:13:08;23.10;;;8.65;;
23470;SDS011;11908;50.806;4.424;2023-02-20T04:15:35;25.35;;;8.45;;
23470;SDS011;11908;50.806;4.424;2023-02-20T04:18:09;23.33;;;9.43;;
23470;SDS011;11908;50.806;4.424;2023-02-20T04:20:37;23.23;;;10.23;;
23470;SDS011;11908;50.806;4.424;2023-02-20T04:23:08;25.92;;;9.73;;
23470;SDS011;11908;50.806;4.424;2023-02-20T04:28:19;22.83;;;10.45;;
23470;SDS011;11908;50.806;4.424;2023-02-20T04:30:46;24.02;;;10.65;;
23470;SDS011;11908;50.806;4.424;2023-02-20T04:33:13;21.42;;;10.85;;
23470;SDS011;11908;50.806;4.424;2023-02-20T04:35:39;23.25;;;10.23;;
23470;SDS011;11908;50.806;4.424;2023-02-20T04:38:05;17.27;;;10.25;;
23470;SDS011;11908;50.806;4.424;2023-02-20T04:40:32;20.73;;;10.55;;
23470;SDS011;11908;50.806;4.424;2023-02-20T04:42:57;27.20;;;10.40;;
23470;SDS011;11908;50.806;4.424;2023-02-20T04:45:23;23.02;;;10.20;;
23470;SDS011;11908;50.806;4.424;2023-02-20T04:47:49;19.00;;;9.50;;
23470;SDS011;11908;50.806;4.424;2023-02-20T04:50:19;18.85;;;9.73;;
23470;SDS011;11908;50.806;4.424;2023-02-20T04:52:51;23.13;;;9.43;;
23470;SDS011;11908;50.806;4.424;2023-02-20T04:55:17;25.25;;;9.30;;
23470;SDS011;11908;50.806;4.424;2023-02-20T04:57:44;22.75;;;9.80;;
23470;SDS011;11908;50.806;4.424;2023-02-20T05:00:11;18.10;;;8.50;;
23470;SDS011;11908;50.806;4.424;2023-02-20T05:02:37;19.75;;;9.07;;
23470;SDS011;11908;50.806;4.424;2023-02-20T05:05:04;21.17;;;7.95;;
23470;SDS011;11908;50.806;4.424;2023-02-20T05:07:31;25.30;;;8.35;;
23470;SDS011;11908;50.806;4.424;2023-02-20T05:09:57;17.52;;;7.47;;
23470;SDS011;11908;50.806;4.424;2023-02-20T05:12:23;18.52;;;7.97;;
23470;SDS011;11908;50.806;4.424;2023-02-20T05:14:49;13.80;;;7.63;;
23470;SDS011;11908;50.806;4.424;2023-02-20T05:17:14;17.95;;;7.57;;
23470;SDS011;11908;50.806;4.424;2023-02-20T05:19:40;16.75;;;7.13;;
23470;SDS011;11908;50.806;4.424;2023-02-20T05:22:12;14.85;;;7.10;;
23470;SDS011;11908;50.806;4.424;2023-02-20T05:24:44;22.17;;;7.43;;
23470;SDS011;11908;50.806;4.424;2023-02-20T05:27:11;21.52;;;7.97;;
23470;SDS011;11908;50.806;4.424;2023-02-20T05:29:43;16.05;;;7.32;;
23470;SDS011;11908;50.806;4.424;2023-02-20T05:32:13;15.82;;;7.63;;
23470;SDS011;11908;50.806;4.424;2023-02-20T05:34:40;20.88;;;8.07;;
23470;SDS011;11908;50.806;4.424;2023-02-20T05:37:06;19.25;;;7.32;;
23470;SDS011;11908;50.806;4.424;2023-02-20T05:39:32;18.35;;;6.78;;
23470;SDS011;11908;50.806;4.424;2023-02-20T05:41:58;14.80;;;6.30;;
23470;SDS011;11908;50.806;4.424;2023-02-20T05:44:23;18.70;;;6.65;;
23470;SDS011;11908;50.806;4.424;2023-02-20T05:46:49;19.73;;;6.60;;
23470;SDS011;11908;50.806;4.424;2023-02-20T05:49:16;15.95;;;6.38;;
23470;SDS011;11908;50.806;4.424;2023-02-20T05:51:42;19.35;;;7.13;;
23470;SDS011;11908;50.806;4.424;2023-02-20T05:54:08;23.48;;;7.32;;
23470;SDS011;11908;50.806;4.424;2023-02-20T05:56:33;21.65;;;6.65;;
23470;SDS011;11908;50.806;4.424;2023-02-20T05:59:00;19.75;;;6.95;;
23470;SDS011;11908;50.806;4.424;2023-02-20T06:01:29;22.67;;;7.25;;
23470;SDS011;11908;50.806;4.424;2023-02-20T06:03:55;19.95;;;6.43;;
23470;SDS011;11908;50.806;4.424;2023-02-20T06:06:22;16.13;;;6.85;;
23470;SDS011;11908;50.806;4.424;2023-02-20T06:08:48;19.15;;;7.47;;
23470;SDS011;11908;50.806;4.424;2023-02-20T06:11:14;13.88;;;6.53;;
23470;SDS011;11908;50.806;4.424;2023-02-20T06:13:41;15.10;;;7.00;;
23470;SDS011;11908;50.806;4.424;2023-02-20T06:16:08;20.63;;;7.45;;
23470;SDS011;11908;50.806;4.424;2023-02-20T06:18:38;16.92;;;6.88;;
23470;SDS011;11908;50.806;4.424;2023-02-20T06:21:08;21.15;;;8.82;;
23470;SDS011;11908;50.806;4.424;2023-02-20T06:23:35;15.00;;;7.70;;
23470;SDS011;11908;50.806;4.424;2023-02-20T06:26:04;20.13;;;8.02;;
23470;SDS011;11908;50.806;4.424;2023-02-20T06:28:31;15.93;;;6.80;;
23470;SDS011;11908;50.806;4.424;2023-02-20T06:30:57;18.38;;;7.00;;
23470;SDS011;11908;50.806;4.424;2023-02-20T06:33:22;13.98;;;6.28;;
23470;SDS011;11908;50.806;4.424;2023-02-20T06:35:48;15.90;;;6.57;;
23470;SDS011;11908;50.806;4.424;2023-02-20T06:38:14;13.63;;;6.93;;
23470;SDS011;11908;50.806;4.424;2023-02-20T06:40:39;14.80;;;7.45;;
23470;SDS011;11908;50.806;4.424;2023-02-20T06:43:05;22.83;;;7.30;;
23470;SDS011;11908;50.806;4.424;2023-02-20T06:45:31;20.42;;;8.23;;
23470;SDS011;11908;50.806;4.424;2023-02-20T06:47:56;21.63;;;7.18;;
23470;SDS011;11908;50.806;4.424;2023-02-20T06:50:22;17.92;;;6.32;;
23470;SDS011;11908;50.806;4.424;2023-02-20T06:52:47;13.70;;;5.88;;
23470;SDS011;11908;50.806;4.424;2023-02-20T06:55:13;16.95;;;6.10;;
23470;SDS011;11908;50.806;4.424;2023-02-20T06:57:39;17.00;;;6.15;;
23470;SDS011;11908;50.806;4.424;2023-02-20T07:00:05;15.32;;;5.80;;
23470;SDS011;11908;50.806;4.424;2023-02-20T07:02:31;15.52;;;6.00;;
23470;SDS011;11908;50.806;4.424;2023-02-20T07:04:56;11.65;;;5.80;;
23470;SDS011;11908;50.806;4.424;2023-02-20T07:07:22;20.90;;;7.05;;
23470;SDS011;11908;50.806;4.424;2023-02-20T07:09:48;16.88;;;6.15;;
23470;SDS011;11908;50.806;4.424;2023-02-20T07:12:13;19.73;;;6.00;;
23470;SDS011;11908;50.806;4.424;2023-02-20T07:14:39;21.63;;;5.80;;
23470;SDS011;11908;50.806;4.424;2023-02-20T07:17:05;15.68;;;6.57;;
23470;SDS011;11908;50.806;4.424;2023-02-20T07:19:30;14.18;;;6.80;;
23470;SDS011;11908;50.806;4.424;2023-02-20T07:21:56;16.60;;;6.18;;
23470;SDS011;11908;50.806;4.424;2023-02-20T07:24:21;23.02;;;6.55;;
23470;SDS011;11908;50.806;4.424;2023-02-20T07:26:47;19.20;;;6.60;;
23470;SDS011;11908;50.806;4.424;2023-02-20T07:29:13;12.75;;;5.57;;
23470;SDS011;11908;50.806;4.424;2023-02-20T07:31:39;20.65;;;6.57;;
23470;SDS011;11908;50.806;4.424;2023-02-20T07:34:04;18.08;;;6.53;;
23470;SDS011;11908;50.806;4.424;2023-02-20T07:36:30;13.35;;;6.15;;
23470;SDS011;11908;50.806;4.424;2023-02-20T07:38:57;13.70;;;6.07;;
23470;SDS011;11908;50.806;4.424;2023-02-20T07:41:24;23.75;;;6.47;;
23470;SDS011;11908;50.806;4.424;2023-02-20T07:43:53;15.05;;;6.35;;
23470;SDS011;11908;50.806;4.424;2023-02-20T07:46:20;25.88;;;7.78;;
23470;SDS011;11908;50.806;4.424;2023-02-20T07:48:46;14.57;;;6.93;;
23470;SDS011;11908;50.806;4.424;2023-02-20T07:51:12;17.17;;;6.70;;
23470;SDS011;11908;50.806;4.424;2023-02-20T07:53:39;23.35;;;6.25;;
23470;SDS011;11908;50.806;4.424;2023-02-20T07:56:10;19.55;;;7.18;;
23470;SDS011;11908;50.806;4.424;2023-02-20T07:58:36;18.10;;;7.03;;
23470;SDS011;11908;50.806;4.424;2023-02-20T08:01:02;15.93;;;6.70;;
23470;SDS011;11908;50.806;4.424;2023-02-20T08:03:27;35.45;;;7.72;;
23470;SDS011;11908;50.806;4.424;2023-02-20T08:05:53;19.52;;;7.03;;
23470;SDS011;11908;50.806;4.424;2023-02-20T08:08:19;16.63;;;7.30;;
23470;SDS011;11908;50.806;4.424;2023-02-20T08:10:48;17.05;;;6.97;;
23470;SDS011;11908;50.806;4.424;2023-02-20T08:13:14;18.73;;;7.47;;
23470;SDS011;11908;50.806;4.424;2023-02-20T08:15:40;18.02;;;6.75;;
23470;SDS011;11908;50.806;4.424;2023-02-20T08:18:06;19.27;;;7.20;;
23470;SDS011;11908;50.806;4.424;2023-02-20T08:20:31;18.63;;;7.30;;
23470;SDS011;11908;50.806;4.424;2023-02-20T08:22:57;20.50;;;6.72;;
23470;SDS011;11908;50.806;4.424;2023-02-20T08:25:24;19.13;;;6.85;;
23470;SDS011;11908;50.806;4.424;2023-02-20T08:27:50;14.32;;;6.78;;
23470;SDS011;11908;50.806;4.424;2023-02-20T08:30:23;23.55;;;7.22;;
23470;SDS011;11908;50.806;4.424;2023-02-20T08:32:51;26.75;;;8.50;;
23470;SDS011;11908;50.806;4.424;2023-02-20T08:35:17;22.15;;;8.45;;
23470;SDS011;11908;50.806;4.424;2023-02-20T08:37:43;15.40;;;7.50;;
23470;SDS011;11908;50.806;4.424;2023-02-20T08:40:10;21.00;;;8.40;;
23470;SDS011;11908;50.806;4.424;2023-02-20T08:42:36;20.70;;;8.25;;
23470;SDS011;11908;50.806;4.424;2023-02-20T08:45:05;20.77;;;7.75;;
23470;SDS011;11908;50.806;4.424;2023-02-20T08:47:32;18.63;;;8.02;;
23470;SDS011;11908;50.806;4.424;2023-02-20T08:49:58;26.75;;;9.30;;
23470;SDS011;11908;50.806;4.424;2023-02-20T08:52:24;17.30;;;7.57;;
23470;SDS011;11908;50.806;4.424;2023-02-20T08:54:49;21.50;;;8.55;;
23470;SDS011;11908;50.806;4.424;2023-02-20T08:57:16;22.67;;;8.18;;
23470;SDS011;11908;50.806;4.424;2023-02-20T08:59:42;12.32;;;7.85;;
23470;SDS011;11908;50.806;4.424;2023-02-20T09:02:13;26.95;;;8.23;;
23470;SDS011;11908;50.806;4.424;2023-02-20T09:04:52;20.88;;;7.80;;
23470;SDS011;11908;50.806;4.424;2023-02-20T09:07:19;25.00;;;8.00;;
23470;SDS011;11908;50.806;4.424;2023-02-20T09:09:44;20.73;;;8.38;;
23470;SDS011;11908;50.806;4.424;2023-02-20T09:12:10;24.48;;;7.25;;
23470;SDS011;11908;50.806;4.424;2023-02-20T09:14:36;26.23;;;7.72;;
23470;SDS011;11908;50.806;4.424;2023-02-20T09:17:02;20.10;;;7.55;;
23470;SDS011;11908;50.806;4.424;2023-02-20T09:19:29;22.65;;;8.15;;
23470;SDS011;11908;50.806;4.424;2023-02-20T09:21:55;22.17;;;8.45;;
23470;SDS011;11908;50.806;4.424;2023-02-20T09:24:20;18.63;;;8.20;;
23470;SDS011;11908;50.806;4.424;2023-02-20T09:26:46;28.02;;;9.25;;
23470;SDS011;11908;50.806;4.424;2023-02-20T09:29:12;15.93;;;7.35;;
23470;SDS011;11908;50.806;4.424;2023-02-20T09:31:38;21.05;;;7.32;;
23470;SDS011;11908;50.806;4.424;2023-02-20T09:34:03;16.70;;;7.43;;
23470;SDS011;11908;50.806;4.424;2023-02-20T09:36:29;25.70;;;7.35;;
23470;SDS011;11908;50.806;4.424;2023-02-20T09:38:55;34.80;;;8.88;;
23470;SDS011;11908;50.806;4.424;2023-02-20T09:41:32;22.27;;;7.03;;
23470;SDS011;11908;50.806;4.424;2023-02-20T09:46:42;23.15;;;7.57;;
23470;SDS011;11908;50.806;4.424;2023-02-20T09:51:42;34.35;;;8.88;;
23470;SDS011;11908;50.806;4.424;2023-02-20T09:54:14;16.33;;;7.20;;
23470;SDS011;11908;50.806;4.424;2023-02-20T09:56:51;42.78;;;9.10;;
23470;SDS011;11908;50.806;4.424;2023-02-20T09:59:27;20.65;;;7.53;;
23470;SDS011;11908;50.806;4.424;2023-02-20T10:02:13;18.88;;;7.47;;
23470;SDS011;11908;50.806;4.424;2023-02-20T10:04:43;19.58;;;9.00;;
23470;SDS011;11908;50.806;4.424;2023-02-20T10:07:17;23.27;;;9.27;;
23470;SDS011;11908;50.806;4.424;2023-02-20T10:12:59;18.83;;;7.53;;
23470;SDS011;11908;50.806;4.424;2023-02-20T10:15:28;20.67;;;9.15;;
23470;SDS011;11908;50.806;4.424;2023-02-20T10:18:18;17.27;;;7.75;;
23470;SDS011;11908;50.806;4.424;2023-02-20T10:20:56;33.88;;;11.05;;
23470;SDS011;11908;50.806;4.424;2023-02-20T10:26:06;24.83;;;7.45;;
23470;SDS011;11908;50.806;4.424;2023-02-20T10:28:53;18.00;;;7.70;;
23470;SDS011;11908;50.806;4.424;2023-02-20T10:31:32;23.67;;;7.28;;
23470;SDS011;11908;50.806;4.424;2023-02-20T10:34:08;44.28;;;8.82;;
23470;SDS011;11908;50.806;4.424;2023-02-20T10:39:22;31.88;;;8.32;;
23470;SDS011;11908;50.806;4.424;2023-02-20T10:44:24;37.47;;;8.65;;
23470;SDS011;11908;50.806;4.424;2023-02-20T10:49:30;28.77;;;9.02;;
23470;SDS011;11908;50.806;4.424;2023-02-20T10:52:45;34.58;;;9.27;;
23470;SDS011;11908;50.806;4.424;2023-02-20T10:57:59;22.73;;;7.65;;
23470;SDS011;11908;50.806;4.424;2023-02-20T11:00:31;15.60;;;6.78;;
23470;SDS011;11908;50.806;4.424;2023-02-20T11:05:35;16.20;;;7.97;;
23470;SDS011;11908;50.806;4.424;2023-02-20T11:08:07;35.55;;;8.40;;
23470;SDS011;11908;50.806;4.424;2023-02-20T11:10:33;36.17;;;8.20;;
23470;SDS011;11908;50.806;4.424;2023-02-20T11:12:59;16.58;;;7.47;;
23470;SDS011;11908;50.806;4.424;2023-02-20T11:15:27;20.95;;;8.18;;
23470;SDS011;11908;50.806;4.424;2023-02-20T11:17:56;18.08;;;7.65;;
23470;SDS011;11908;50.806;4.424;2023-02-20T11:23:32;19.73;;;7.43;;
23470;SDS011;11908;50.806;4.424;2023-02-20T11:31:26;21.02;;;7.70;;
23470;SDS011;11908;50.806;4.424;2023-02-20T11:33:53;13.57;;;6.70;;
23470;SDS011;11908;50.806;4.424;2023-02-20T11:36:21;15.98;;;6.95;;
23470;SDS011;11908;50.806;4.424;2023-02-20T11:38:55;17.02;;;6.88;;
23470;SDS011;11908;50.806;4.424;2023-02-20T11:41:25;17.50;;;7.28;;
23470;SDS011;11908;50.806;4.424;2023-02-20T11:44:09;18.77;;;7.03;;
23470;SDS011;11908;50.806;4.424;2023-02-20T11:46:43;28.70;;;7.78;;
23470;SDS011;11908;50.806;4.424;2023-02-20T11:49:21;17.02;;;7.65;;
23470;SDS011;11908;50.806;4.424;2023-02-20T11:51:49;16.92;;;6.95;;
23470;SDS011;11908;50.806;4.424;2023-02-20T11:54:17;19.90;;;6.50;;
23470;SDS011;11908;50.806;4.424;2023-02-20T11:59:49;16.15;;;7.25;;
23470;SDS011;11908;50.806;4.424;2023-02-20T12:12:51;11.20;;;5.43;;
23470;SDS011;11908;50.806;4.424;2023-02-20T12:15:19;20.17;;;6.18;;
23470;SDS011;11908;50.806;4.424;2023-02-20T12:21:07;18.17;;;6.50;;
23470;SDS011;11908;50.806;4.424;2023-02-20T12:23:47;14.80;;;5.13;;
23470;SDS011;11908;50.806;4.424;2023-02-20T12:46:02;17.15;;;5.97;;
23470;SDS011;11908;50.806;4.424;2023-02-20T13:01:52;16.30;;;5.70;;
23470;SDS011;11908;50.806;4.424;2023-02-20T13:05:01;16.92;;;6.10;;
23470;SDS011;11908;50.806;4.424;2023-02-20T13:07:13;14.27;;;6.43;;
23470;SDS011;11908;50.806;4.424;2023-02-20T13:09:56;18.73;;;6.55;;
23470;SDS011;11908;50.806;4.424;2023-02-20T13:12:22;14.77;;;6.07;;
23470;SDS011;11908;50.806;4.424;2023-02-20T13:17:35;10.93;;;6.15;;
23470;SDS011;11908;50.806;4.424;2023-02-20T13:22:40;13.75;;;5.65;;
23470;SDS011;11908;50.806;4.424;2023-02-20T13:25:41;14.43;;;5.95;;
23470;SDS011;11908;50.806;4.424;2023-02-20T13:30:44;26.35;;;6.28;;
23470;SDS011;11908;50.806;4.424;2023-02-20T13:33:29;15.25;;;5.68;;
23470;SDS011;11908;50.806;4.424;2023-02-20T13:35:55;18.80;;;6.55;;
23470;SDS011;11908;50.806;4.424;2023-02-20T13:38:23;14.70;;;6.05;;
23470;SDS011;11908;50.806;4.424;2023-02-20T13:43:29;14.25;;;6.25;;
23470;SDS011;11908;50.806;4.424;2023-02-20T13:51:47;11.40;;;5.72;;
23470;SDS011;11908;50.806;4.424;2023-02-20T13:53:50;15.18;;;5.72;;
23470;SDS011;11908;50.806;4.424;2023-02-20T13:56:27;11.63;;;5.85;;
23470;SDS011;11908;50.806;4.424;2023-02-20T13:59:07;12.93;;;5.40;;
23470;SDS011;11908;50.806;4.424;2023-02-20T14:01:56;11.95;;;6.35;;
23470;SDS011;11908;50.806;4.424;2023-02-20T14:04:37;11.70;;;5.40;;
23470;SDS011;11908;50.806;4.424;2023-02-20T14:07:02;20.42;;;5.28;;
23470;SDS011;11908;50.806;4.424;2023-02-20T14:09:28;13.93;;;5.15;;
23470;SDS011;11908;50.806;4.424;2023-02-20T14:12:01;20.58;;;6.15;;
23470;SDS011;11908;50.806;4.424;2023-02-20T14:14:43;15.75;;;6.35;;
23470;SDS011;11908;50.806;4.424;2023-02-20T14:19:41;15.00;;;6.30;;
23470;SDS011;11908;50.806;4.424;2023-02-20T14:22:22;19.23;;;5.88;;
23470;SDS011;11908;50.806;4.424;2023-02-20T14:27:51;15.00;;;5.90;;
23470;SDS011;11908;50.806;4.424;2023-02-20T14:30:32;15.38;;;6.28;;
23470;SDS011;11908;50.806;4.424;2023-02-20T14:32:58;16.23;;;6.40;;
23470;SDS011;11908;50.806;4.424;2023-02-20T14:35:38;10.80;;;6.53;;
23470;SDS011;11908;50.806;4.424;2023-02-20T14:38:49;10.98;;;6.18;;
23470;SDS011;11908;50.806;4.424;2023-02-20T14:41:26;15.65;;;6.43;;
23470;SDS011;11908;50.806;4.424;2023-02-20T14:44:01;10.60;;;5.72;;
23470;SDS011;11908;50.806;4.424;2023-02-20T14:46:30;17.10;;;5.78;;
23470;SDS011;11908;50.806;4.424;2023-02-20T14:49:12;12.20;;;6.47;;
23470;SDS011;11908;50.806;4.424;2023-02-20T14:51:39;13.57;;;6.00;;
23470;SDS011;11908;50.806;4.424;2023-02-20T14:54:24;18.25;;;5.40;;
23470;SDS011;11908;50.806;4.424;2023-02-20T14:56:53;23.13;;;6.10;;
23470;SDS011;11908;50.806;4.424;2023-02-20T15:02:23;19.42;;;6.78;;
23470;SDS011;11908;50.806;4.424;2023-02-20T15:04:53;27.35;;;6.63;;
23470;SDS011;11908;50.806;4.424;2023-02-20T15:07:24;19.42;;;5.72;;
23470;SDS011;11908;50.806;4.424;2023-02-20T15:09:52;18.88;;;6.13;;
23470;SDS011;11908;50.806;4.424;2023-02-20T15:15:01;19.33;;;6.20;;
23470;SDS011;11908;50.806;4.424;2023-02-20T15:17:36;12.18;;;5.80;;
23470;SDS011;11908;50.806;4.424;2023-02-20T15:20:46;19.63;;;6.43;;
23470;SDS011;11908;50.806;4.424;2023-02-20T15:23:09;10.52;;;5.60;;
23470;SDS011;11908;50.806;4.424;2023-02-20T15:25:54;13.20;;;6.07;;
23470;SDS011;11908;50.806;4.424;2023-02-20T15:33:35;12.40;;;5.63;;
23470;SDS011;11908;50.806;4.424;2023-02-20T15:36:14;14.57;;;6.07;;
23470;SDS011;11908;50.806;4.424;2023-02-20T15:38:42;13.63;;;6.35;;
23470;SDS011;11908;50.806;4.424;2023-02-20T15:41:08;10.63;;;5.57;;
23470;SDS011;11908;50.806;4.424;2023-02-20T15:43:35;10.20;;;5.82;;
23470;SDS011;11908;50.806;4.424;2023-02-20T15:46:01;9.45;;;6.03;;
23470;SDS011;11908;50.806;4.424;2023-02-20T15:48:26;14.07;;;5.60;;
23470;SDS011;11908;50.806;4.424;2023-02-20T15:50:52;12.65;;;6.00;;
23470;SDS011;11908;50.806;4.424;2023-02-20T15:53:25;11.45;;;6.13;;
23470;SDS011;11908;50.806;4.424;2023-02-20T15:55:54;13.32;;;6.20;;
23470;SDS011;11908;50.806;4.424;2023-02-20T16:01:07;15.48;;;6.57;;
23470;SDS011;11908;50.806;4.424;2023-02-20T16:03:32;14.40;;;6.45;;
23470;SDS011;11908;50.806;4.424;2023-02-20T16:05:59;13.63;;;6.88;;
23470;SDS011;11908;50.806;4.424;2023-02-20T16:08:25;13.23;;;6.95;;
23470;SDS011;11908;50.806;4.424;2023-02-20T16:10:51;12.23;;;7.07;;
23470;SDS011;11908;50.806;4.424;2023-02-20T16:13:28;15.32;;;6.95;;
23470;SDS011;11908;50.806;4.424;2023-02-20T16:15:55;10.15;;;7.75;;
23470;SDS011;11908;50.806;4.424;2023-02-20T16:18:22;14.05;;;8.18;;
23470;SDS011;11908;50.806;4.424;2023-02-20T16:20:51;11.30;;;7.18;;
23470;SDS011;11908;50.806;4.424;2023-02-20T16:23:17;19.35;;;8.73;;
23470;SDS011;11908;50.806;4.424;2023-02-20T16:25:43;10.90;;;8.00;;
23470;SDS011;11908;50.806;4.424;2023-02-20T16:28:09;12.82;;;8.20;;
23470;SDS011;11908;50.806;4.424;2023-02-20T16:30:38;13.32;;;7.78;;
23470;SDS011;11908;50.806;4.424;2023-02-20T16:35:45;13.77;;;8.15;;
23470;SDS011;11908;50.806;4.424;2023-02-20T16:38:12;15.63;;;9.07;;
23470;SDS011;11908;50.806;4.424;2023-02-20T16:40:38;13.15;;;8.25;;
23470;SDS011;11908;50.806;4.424;2023-02-20T16:43:04;14.52;;;8.20;;
23470;SDS011;11908;50.806;4.424;2023-02-20T16:45:30;14.45;;;8.88;;
23470;SDS011;11908;50.806;4.424;2023-02-20T16:47:56;14.93;;;9.50;;
23470;SDS011;11908;50.806;4.424;2023-02-20T16:50:25;14.45;;;8.75;;
23470;SDS011;11908;50.806;4.424;2023-02-20T16:52:54;19.40;;;9.70;;
23470;SDS011;11908;50.806;4.424;2023-02-20T16:55:33;12.98;;;9.30;;
23470;SDS011;11908;50.806;4.424;2023-02-20T16:58:00;13.75;;;9.73;;
23470;SDS011;11908;50.806;4.424;2023-02-20T17:00:34;12.75;;;9.05;;
23470;SDS011;11908;50.806;4.424;2023-02-20T17:03:03;16.63;;;10.00;;
23470;SDS011;11908;50.806;4.424;2023-02-20T17:05:31;16.27;;;10.15;;
23470;SDS011;11908;50.806;4.424;2023-02-20T17:07:59;14.32;;;10.35;;
23470;SDS011;11908;50.806;4.424;2023-02-20T17:10:26;20.17;;;11.38;;
23470;SDS011;11908;50.806;4.424;2023-02-20T17:12:53;19.27;;;11.13;;
23470;SDS011;11908;50.806;4.424;2023-02-20T17:15:20;17.05;;;11.02;;
23470;SDS011;11908;50.806;4.424;2023-02-20T17:17:47;18.75;;;12.10;;
23470;SDS011;11908;50.806;4.424;2023-02-20T17:20:14;16.30;;;10.52;;
23470;SDS011;11908;50.806;4.424;2023-02-20T17:22:42;19.80;;;11.10;;